createdAt,value
2022-11-29T00:02:15.133Z,85.57
2022-11-29T00:04:45.997Z,85.24
2022-11-29T00:07:16.806Z,85.21
2022-11-29T00:09:48.966Z,85.21
2022-11-29T00:12:19.472Z,85.26
2022-11-29T00:14:50.070Z,85.45
2022-11-29T00:17:20.489Z,85.41
2022-11-29T00:19:51.050Z,85.22
2022-11-29T00:22:23.322Z,85.15
2022-11-29T00:24:53.744Z,84.99
2022-11-29T00:27:25.592Z,85.01
2022-11-29T00:29:56.066Z,85.16
2022-11-29T00:32:26.549Z,85.11
2022-11-29T00:34:59.651Z,85.20
2022-11-29T00:37:29.761Z,85.23
2022-11-29T00:40:00.517Z,85.20
2022-11-29T00:42:31.005Z,85.11
2022-11-29T00:45:01.487Z,85.18
2022-11-29T00:47:32.065Z,85.27
2022-11-29T00:50:03.263Z,85.17
2022-11-29T00:52:34.678Z,85.32
2022-11-29T00:55:05.494Z,85.22
2022-11-29T00:57:35.977Z,85.23
2022-11-29T01:00:07.823Z,85.23
2022-11-29T01:02:38.664Z,85.39
2022-11-29T01:05:09.612Z,85.37
2022-11-29T01:07:40.169Z,85.32
2022-11-29T01:10:12.685Z,85.27
2022-11-29T01:12:43.259Z,85.09
2022-11-29T01:15:14.055Z,85.20
2022-11-29T01:17:44.605Z,85.17
2022-11-29T01:20:16.896Z,85.22
2022-11-29T01:22:47.616Z,85.03
2022-11-29T01:25:19.295Z,85.36
2022-11-29T01:27:49.718Z,85.09
2022-11-29T01:30:20.700Z,85.27
2022-11-29T01:32:51.303Z,85.24
2022-11-29T01:35:22.297Z,85.45
2022-11-29T01:37:54.528Z,85.32
2022-11-29T01:40:24.995Z,85.34
2022-11-29T01:42:57.574Z,85.21
2022-11-29T01:45:28.100Z,85.26
2022-11-29T01:47:59.496Z,85.14
2022-11-29T01:50:30.123Z,85.04
2022-11-29T01:53:01.469Z,85.25
2022-11-29T01:55:33.509Z,85.16
2022-11-29T01:58:06.652Z,85.09
2022-11-29T02:00:37.964Z,85.01
2022-11-29T02:03:17.357Z,84.93
2022-11-29T02:05:51.108Z,84.99
2022-11-29T02:08:36.604Z,84.88
2022-11-29T02:11:27.947Z,84.90
2022-11-29T02:14:22.045Z,84.86
2022-11-29T02:17:14.359Z,85.12
2022-11-29T02:19:59.222Z,85.14
2022-11-29T02:22:32.731Z,84.90
2022-11-29T02:25:08.848Z,85.22
2022-11-29T02:27:48.360Z,85.20
2022-11-29T02:30:37.169Z,85.25
2022-11-29T02:33:30.432Z,85.15
2022-11-29T02:36:20.971Z,85.24
2022-11-29T02:39:15.002Z,85.12
2022-11-29T02:41:54.534Z,85.23
2022-11-29T02:44:40.244Z,85.32
2022-11-29T02:47:19.057Z,85.20
2022-11-29T02:50:18.178Z,85.31
2022-11-29T02:53:14.551Z,85.26
2022-11-29T02:55:57.331Z,85.36
2022-11-29T02:58:36.535Z,85.35
2022-11-29T03:01:31.111Z,85.50
2022-11-29T03:04:05.616Z,85.78
2022-11-29T03:06:42.527Z,85.78
2022-11-29T03:09:46.632Z,85.86
2022-11-29T03:12:39.731Z,85.90
2022-11-29T03:15:26.644Z,86.15
2022-11-29T03:18:27.375Z,85.96
2022-11-29T03:21:10.195Z,85.81
2022-11-29T03:23:49.313Z,86.00
2022-11-29T03:26:34.671Z,85.94
2022-11-29T03:29:26.431Z,85.86
2022-11-29T03:32:08.646Z,85.74
2022-11-29T03:34:57.660Z,85.86
2022-11-29T03:37:46.694Z,85.92
2022-11-29T03:40:21.220Z,86.06
2022-11-29T03:43:00.442Z,86.00
2022-11-29T03:45:39.554Z,86.07
2022-11-29T03:48:19.077Z,86.05
2022-11-29T03:50:56.436Z,86.12
2022-11-29T03:53:34.355Z,86.03
2022-11-29T03:56:07.808Z,85.94
2022-11-29T03:58:43.997Z,85.96
2022-11-29T04:01:46.094Z,86.06
2022-11-29T04:04:20.404Z,86.11
2022-11-29T04:07:02.195Z,86.24
2022-11-29T04:09:53.963Z,86.31
2022-11-29T04:12:39.125Z,86.40
2022-11-29T04:15:21.849Z,86.37
2022-11-29T04:18:01.127Z,86.27
2022-11-29T04:20:55.954Z,86.48
2022-11-29T04:23:32.309Z,86.48
2022-11-29T04:26:37.872Z,86.28
2022-11-29T04:29:11.518Z,86.19
2022-11-29T04:32:04.737Z,86.27
2022-11-29T04:35:02.312Z,86.40
2022-11-29T04:37:44.906Z,86.35
2022-11-29T04:40:44.085Z,86.61
2022-11-29T04:43:19.051Z,86.36
2022-11-29T04:46:04.843Z,86.22
2022-11-29T04:48:57.945Z,86.48
2022-11-29T04:51:31.720Z,86.32
2022-11-29T04:54:23.051Z,86.33
2022-11-29T04:56:56.657Z,86.28
2022-11-29T04:59:48.415Z,86.28
2022-11-29T05:02:28.228Z,86.37
2022-11-29T05:05:16.634Z,86.37
2022-11-29T05:08:01.936Z,86.24
2022-11-29T05:10:44.266Z,86.30
2022-11-29T05:13:20.871Z,86.02
2022-11-29T05:16:09.700Z,86.14
2022-11-29T05:19:03.290Z,86.02
2022-11-29T05:21:45.644Z,86.03
2022-11-29T05:24:24.163Z,86.09
2022-11-29T05:27:24.811Z,85.98
2022-11-29T05:30:07.439Z,86.01
2022-11-29T05:33:03.055Z,86.06
2022-11-29T05:35:54.117Z,85.90
2022-11-29T05:38:33.165Z,85.86
2022-11-29T05:41:23.034Z,85.91
2022-11-29T05:44:31.220Z,85.87
2022-11-29T05:47:08.966Z,85.80
2022-11-29T05:49:47.029Z,85.96
2022-11-29T05:52:24.494Z,85.94
2022-11-29T05:55:16.606Z,86.02
2022-11-29T05:58:11.337Z,85.93
2022-11-29T06:00:50.722Z,85.94
2022-11-29T06:03:27.299Z,85.76
2022-11-29T06:06:15.763Z,85.87
2022-11-29T06:08:58.290Z,85.68
2022-11-29T06:11:37.752Z,85.86
2022-11-29T06:14:27.370Z,85.77
2022-11-29T06:17:15.963Z,85.84
2022-11-29T06:19:55.501Z,85.89
2022-11-29T06:22:34.904Z,85.76
2022-11-29T06:25:27.758Z,85.91
2022-11-29T06:28:07.029Z,85.84
2022-11-29T06:30:53.486Z,85.98
2022-11-29T06:33:32.621Z,86.16
2022-11-29T06:36:12.126Z,86.06
2022-11-29T06:38:44.169Z,86.33
2022-11-29T06:41:20.749Z,86.53
2022-11-29T06:43:54.181Z,86.37
2022-11-29T06:46:50.419Z,86.56
2022-11-29T06:49:26.986Z,86.31
2022-11-29T06:52:00.866Z,86.49
2022-11-29T06:54:40.326Z,86.52
2022-11-29T06:57:32.102Z,86.15
2022-11-29T07:00:18.158Z,86.47
2022-11-29T07:02:51.623Z,86.38
2022-11-29T07:05:36.257Z,86.06
2022-11-29T07:08:22.450Z,85.94
2022-11-29T07:10:55.634Z,86.22
2022-11-29T07:13:26.591Z,86.21
2022-11-29T07:16:05.997Z,86.21
2022-11-29T07:18:51.373Z,86.17
2022-11-29T07:21:53.958Z,86.16
2022-11-29T07:24:46.624Z,86.09
2022-11-29T07:27:29.679Z,86.07
2022-11-29T07:30:15.490Z,86.23
2022-11-29T07:33:16.281Z,85.86
2022-11-29T07:35:55.831Z,86.11
2022-11-29T07:38:32.134Z,86.17
2022-11-29T07:41:07.431Z,86.11
2022-11-29T07:43:53.831Z,86.33
2022-11-29T07:46:26.766Z,86.17
2022-11-29T07:48:58.856Z,86.07
2022-11-29T07:51:29.662Z,86.04
2022-11-29T07:54:00.654Z,85.84
2022-11-29T07:56:31.063Z,85.78
2022-11-29T07:59:01.626Z,85.31
2022-11-29T08:01:32.705Z,85.50
2022-11-29T08:04:03.624Z,85.20
2022-11-29T08:06:35.265Z,84.83
2022-11-29T08:09:07.630Z,84.83
2022-11-29T08:11:38.229Z,84.67
2022-11-29T08:14:08.810Z,84.56
2022-11-29T08:16:39.295Z,84.36
2022-11-29T08:19:09.953Z,84.20
2022-11-29T08:21:40.425Z,84.07
2022-11-29T08:24:11.012Z,84.25
2022-11-29T08:26:51.947Z,84.39
2022-11-29T08:29:22.608Z,84.00
2022-11-29T08:31:54.217Z,84.04
2022-11-29T08:34:26.262Z,84.17
2022-11-29T08:36:57.492Z,84.06
2022-11-29T08:39:28.086Z,83.79
2022-11-29T08:42:01.425Z,83.75
2022-11-29T08:44:33.398Z,83.66
2022-11-29T08:47:23.392Z,83.48
2022-11-29T08:50:05.177Z,83.08
2022-11-29T08:52:56.620Z,83.17
2022-11-29T08:55:30.164Z,82.71
2022-11-29T08:58:06.759Z,83.09
2022-11-29T09:00:38.005Z,83.33
2022-11-29T09:03:27.067Z,83.33
2022-11-29T09:05:58.619Z,83.46
2022-11-29T09:08:29.241Z,83.33
2022-11-29T09:10:59.919Z,83.50
2022-11-29T09:13:30.401Z,83.28
2022-11-29T09:16:01.025Z,82.73
2022-11-29T09:18:32.104Z,82.76
2022-11-29T09:21:04.980Z,82.59
2022-11-29T09:23:36.152Z,82.26
2022-11-29T09:26:07.774Z,82.38
2022-11-29T09:28:38.896Z,82.40
2022-11-29T09:31:12.609Z,82.33
2022-11-29T09:33:45.604Z,82.10
2022-11-29T09:36:16.087Z,82.41
2022-11-29T09:38:46.569Z,82.12
2022-11-29T09:41:40.297Z,81.96
2022-11-29T09:44:20.085Z,81.32
2022-11-29T09:46:58.555Z,81.69
2022-11-29T09:50:02.577Z,81.85
2022-11-29T09:52:44.823Z,82.26
2022-11-29T09:55:39.861Z,82.12
2022-11-29T09:58:17.733Z,82.03
2022-11-29T10:00:56.430Z,81.83
2022-11-29T10:03:38.906Z,81.43
2022-11-29T10:06:34.330Z,80.86
2022-11-29T10:09:16.316Z,80.88
2022-11-29T10:12:09.380Z,80.86
2022-11-29T10:14:48.066Z,80.65
2022-11-29T10:17:43.125Z,81.41
2022-11-29T10:20:23.157Z,81.72
2022-11-29T10:23:13.587Z,81.87
2022-11-29T10:25:53.094Z,82.32
2022-11-29T10:28:26.905Z,82.36
2022-11-29T10:31:01.468Z,82.06
2022-11-29T10:33:36.124Z,81.97
2022-11-29T10:36:11.646Z,81.97
2022-11-29T10:38:44.948Z,82.01
2022-11-29T10:41:19.623Z,82.32
2022-11-29T10:43:53.124Z,82.24
2022-11-29T10:46:33.976Z,82.07
2022-11-29T10:49:07.762Z,82.31
2022-11-29T10:51:38.902Z,82.40
2022-11-29T10:54:41.107Z,82.19
2022-11-29T10:57:20.605Z,82.36
2022-11-29T11:00:04.531Z,82.44
2022-11-29T11:02:35.974Z,82.44
2022-11-29T11:05:18.253Z,82.35
2022-11-29T11:07:52.351Z,82.52
2022-11-29T11:10:28.305Z,82.74
2022-11-29T11:13:08.445Z,82.42
2022-11-29T11:15:40.486Z,82.14
2022-11-29T11:18:15.352Z,82.49
2022-11-29T11:20:48.866Z,82.45
2022-11-29T11:23:25.929Z,82.50
2022-11-29T11:26:02.245Z,82.16
2022-11-29T11:28:44.964Z,82.24
2022-11-29T11:31:18.239Z,82.43
2022-11-29T11:33:48.756Z,82.90
2022-11-29T11:36:26.779Z,82.56
2022-11-29T11:39:15.388Z,82.12
2022-11-29T11:42:05.451Z,82.10
2022-11-29T11:44:51.668Z,82.49
2022-11-29T11:47:25.402Z,82.54
2022-11-29T11:49:59.004Z,82.69
2022-11-29T11:52:46.103Z,82.46
2022-11-29T11:55:35.232Z,82.29
2022-11-29T11:58:14.669Z,81.76
2022-11-29T12:01:15.450Z,81.66
2022-11-29T12:04:07.110Z,81.40
2022-11-29T12:06:43.565Z,81.28
2022-11-29T12:09:20.027Z,81.65
2022-11-29T12:12:11.440Z,81.74
2022-11-29T12:14:50.911Z,81.50
2022-11-29T12:17:30.242Z,81.77
2022-11-29T12:20:25.347Z,81.51
2022-11-29T12:23:04.886Z,81.94
2022-11-29T12:25:38.811Z,81.59
2022-11-29T12:28:20.559Z,81.20
2022-11-29T12:31:23.452Z,81.44
2022-11-29T12:34:22.185Z,81.55
2022-11-29T12:37:09.824Z,81.67
2022-11-29T12:39:57.101Z,81.65
2022-11-29T12:42:51.659Z,81.74
2022-11-29T12:45:29.803Z,82.19
2022-11-29T12:48:13.968Z,82.13
2022-11-29T12:51:13.050Z,82.13
2022-11-29T12:54:07.677Z,81.87
2022-11-29T12:56:43.892Z,81.76
2022-11-29T12:59:36.963Z,82.10
2022-11-29T13:02:32.450Z,81.83
2022-11-29T13:05:24.255Z,81.81
2022-11-29T13:08:30.241Z,82.03
2022-11-29T13:11:22.254Z,82.00
2022-11-29T13:14:34.854Z,82.12
2022-11-29T13:17:28.113Z,82.29
2022-11-29T13:20:12.723Z,82.30
2022-11-29T13:22:57.982Z,82.24
2022-11-29T13:25:31.588Z,82.29
2022-11-29T13:28:07.966Z,82.25
2022-11-29T13:30:40.268Z,82.07
2022-11-29T13:33:16.908Z,82.58
2022-11-29T13:36:06.751Z,82.39
2022-11-29T13:38:42.929Z,82.60
2022-11-29T13:41:29.594Z,82.69
2022-11-29T13:44:39.701Z,82.69
2022-11-29T13:47:16.811Z,82.70
2022-11-29T13:49:57.320Z,82.82
2022-11-29T13:52:43.858Z,82.75
2022-11-29T13:55:21.853Z,82.81
2022-11-29T13:58:16.468Z,82.72
2022-11-29T14:00:37.355Z,82.87
2022-11-29T14:03:32.960Z,82.99
2022-11-29T14:06:10.113Z,83.07
2022-11-29T14:11:39.126Z,83.29
2022-11-29T14:14:16.243Z,83.47
2022-11-29T14:16:49.158Z,83.76
2022-11-29T14:19:28.870Z,83.88
2022-11-29T14:22:07.786Z,83.64
2022-11-29T14:24:40.624Z,83.98
2022-11-29T14:27:14.094Z,83.72
2022-11-29T14:29:54.035Z,83.90
2022-11-29T14:32:29.314Z,83.98
2022-11-29T14:35:15.153Z,84.08
2022-11-29T14:37:51.962Z,84.30
2022-11-29T14:40:32.548Z,84.23
2022-11-29T14:43:06.670Z,84.51
2022-11-29T14:45:37.355Z,84.55
2022-11-29T14:48:27.900Z,84.45
2022-11-29T14:51:16.541Z,84.84
2022-11-29T14:53:49.273Z,84.89
2022-11-29T14:56:46.337Z,84.55
2022-11-29T14:59:47.908Z,84.45
2022-11-29T15:02:37.990Z,84.30
2022-11-29T15:05:24.538Z,84.32
2022-11-29T15:08:21.135Z,84.54
2022-11-29T15:10:54.630Z,84.32
2022-11-29T15:13:34.818Z,84.34
2022-11-29T15:16:28.112Z,84.26
2022-11-29T15:19:07.790Z,84.23
2022-11-29T15:21:48.307Z,84.57
2022-11-29T15:24:24.950Z,84.75
2022-11-29T15:26:59.822Z,84.55
2022-11-29T15:29:32.820Z,84.49
2022-11-29T15:32:06.438Z,84.63
2022-11-29T15:34:40.754Z,84.47
2022-11-29T15:37:14.337Z,84.57
2022-11-29T15:39:46.336Z,85.02
2022-11-29T15:42:16.889Z,84.95
2022-11-29T15:44:51.265Z,84.92
2022-11-29T15:47:29.582Z,85.11
2022-11-29T15:50:00.653Z,85.30
2022-11-29T15:52:35.197Z,85.08
2022-11-29T15:55:11.450Z,85.64
2022-11-29T15:57:47.935Z,85.93
2022-11-29T16:00:24.393Z,86.02
2022-11-29T16:02:59.539Z,86.16
2022-11-29T16:05:35.656Z,86.48
2022-11-29T16:08:16.687Z,86.62
2022-11-29T16:10:52.010Z,86.89
2022-11-29T16:13:36.005Z,87.06
2022-11-29T16:16:10.708Z,87.30
2022-11-29T16:18:46.857Z,87.33
2022-11-29T16:21:32.425Z,87.62
2022-11-29T16:24:15.094Z,87.75
2022-11-29T16:26:48.805Z,87.86
2022-11-29T16:29:30.735Z,87.83
2022-11-29T16:32:02.853Z,87.92
2022-11-29T16:34:34.918Z,88.02
2022-11-29T16:37:13.841Z,88.13
2022-11-29T16:39:47.101Z,88.18
2022-11-29T16:42:25.745Z,87.89
2022-11-29T16:45:19.162Z,88.06
2022-11-29T16:47:54.778Z,87.75
2022-11-29T16:50:29.239Z,87.71
2022-11-29T16:53:35.321Z,87.62
2022-11-29T16:56:12.146Z,87.76
2022-11-29T16:59:20.589Z,88.17
2022-11-29T17:01:35.247Z,88.03
2022-11-29T17:04:04.932Z,87.85
2022-11-29T17:06:37.804Z,87.98
2022-11-29T17:09:10.593Z,87.99
2022-11-29T17:11:42.493Z,87.96
2022-11-29T17:14:23.850Z,88.12
2022-11-29T17:17:00.484Z,87.83
2022-11-29T17:19:32.018Z,87.96
2022-11-29T17:22:04.879Z,87.76
2022-11-29T17:24:37.550Z,87.68
2022-11-29T17:27:08.831Z,87.66
2022-11-29T17:29:40.028Z,87.55
2022-11-29T17:32:11.606Z,87.29
2022-11-29T17:34:45.772Z,87.32
2022-11-29T17:37:16.626Z,87.28
2022-11-29T17:39:50.324Z,87.28
2022-11-29T17:42:22.108Z,87.24
2022-11-29T17:44:52.755Z,86.89
2022-11-29T17:47:27.433Z,86.53
2022-11-29T17:50:00.041Z,86.61
2022-11-29T17:52:31.603Z,86.14
2022-11-29T17:55:02.303Z,85.74
2022-11-29T17:57:33.467Z,85.31
2022-11-29T18:00:10.902Z,85.45
2022-11-29T18:02:43.346Z,85.31
2022-11-29T18:05:14.834Z,85.37
2022-11-29T18:08:01.626Z,85.44
2022-11-29T18:10:32.941Z,85.44
2022-11-29T18:13:03.382Z,85.49
2022-11-29T18:15:39.425Z,85.41
2022-11-29T18:18:10.814Z,85.60
2022-11-29T18:20:42.415Z,85.34
2022-11-29T18:23:26.556Z,85.38
2022-11-29T18:26:03.033Z,84.91
2022-11-29T18:28:39.083Z,85.13
2022-11-29T18:31:18.633Z,85.01
2022-11-29T18:33:52.340Z,84.85
2022-11-29T18:36:27.810Z,84.93
2022-11-29T18:39:01.275Z,84.86
2022-11-29T18:41:32.554Z,84.88
2022-11-29T18:44:10.986Z,84.62
2022-11-29T18:46:46.494Z,84.77
2022-11-29T18:49:18.704Z,84.59
2022-11-29T18:51:52.991Z,84.84
2022-11-29T18:54:24.182Z,84.47
2022-11-29T18:56:56.265Z,84.34
2022-11-29T18:59:28.518Z,84.47
2022-11-29T19:01:59.170Z,84.55
2022-11-29T19:04:31.475Z,84.24
2022-11-29T19:07:02.128Z,84.43
2022-11-29T19:09:32.595Z,84.41
2022-11-29T19:12:03.897Z,84.54
2022-11-29T19:14:37.458Z,84.48
2022-11-29T19:17:08.088Z,84.65
2022-11-29T19:19:39.769Z,84.53
2022-11-29T19:22:11.333Z,84.54
2022-11-29T19:24:44.865Z,84.82
2022-11-29T19:27:17.648Z,84.80
2022-11-29T19:29:49.952Z,84.88
2022-11-29T19:32:21.256Z,84.99
2022-11-29T19:34:52.797Z,84.85
2022-11-29T19:37:23.414Z,84.95
2022-11-29T19:39:54.039Z,84.82
2022-11-29T19:42:24.754Z,84.75
2022-11-29T19:47:32.190Z,84.95
2022-11-29T19:50:03.076Z,85.16
2022-11-29T19:52:37.755Z,85.12
2022-11-29T19:55:08.449Z,85.10
2022-11-29T19:57:40.722Z,85.00
2022-11-29T20:00:12.302Z,84.81
2022-11-29T20:02:44.273Z,84.58
2022-11-29T20:05:14.826Z,84.52
2022-11-29T20:07:50.761Z,84.76
2022-11-29T20:10:21.814Z,84.80
2022-11-29T20:12:52.334Z,84.66
2022-11-29T20:15:23.835Z,84.72
2022-11-29T20:17:54.703Z,84.91
2022-11-29T20:20:25.240Z,84.98
2022-11-29T20:22:57.073Z,85.05
2022-11-29T20:25:28.385Z,85.10
2022-11-29T20:28:01.228Z,85.12
2022-11-29T20:30:33.205Z,85.15
2022-11-29T20:33:04.348Z,85.11
2022-11-29T20:35:35.198Z,85.13
2022-11-29T20:38:09.902Z,85.29
2022-11-29T20:40:43.965Z,85.19
2022-11-29T20:43:20.641Z,85.08
2022-11-29T20:45:57.552Z,85.05
2022-11-29T20:48:25.013Z,84.96
2022-11-29T20:51:00.928Z,85.14
2022-11-29T20:53:47.171Z,85.14
2022-11-29T20:56:18.155Z,84.96
2022-11-29T20:58:49.637Z,85.19
2022-11-29T21:01:20.629Z,85.11
2022-11-29T21:03:59.269Z,85.24
2022-11-29T21:06:29.987Z,85.25
2022-11-29T21:09:01.495Z,85.00
2022-11-29T21:11:32.337Z,84.98
2022-11-29T21:14:06.941Z,84.93
2022-11-29T21:16:38.535Z,85.26
2022-11-29T21:19:12.062Z,85.30
2022-11-29T21:21:49.557Z,85.57
2022-11-29T21:24:27.631Z,85.36
2022-11-29T21:27:07.300Z,85.39
2022-11-29T21:29:38.104Z,85.21
2022-11-29T21:32:13.894Z,85.14
2022-11-29T21:34:44.262Z,85.20
2022-11-29T21:37:17.891Z,84.83
2022-11-29T21:39:51.512Z,84.96
2022-11-29T21:42:22.109Z,84.93
2022-11-29T21:44:53.672Z,84.91
2022-11-29T21:47:25.417Z,84.89
2022-11-29T21:49:57.517Z,84.82
2022-11-29T21:52:36.973Z,85.12
2022-11-29T21:55:10.834Z,84.74
2022-11-29T21:57:42.549Z,85.00
2022-11-29T22:00:14.064Z,84.69
2022-11-29T22:02:46.337Z,84.80
2022-11-29T22:05:17.176Z,84.63
2022-11-29T22:07:49.349Z,84.70
2022-11-29T22:10:20.648Z,84.82
2022-11-29T22:12:56.025Z,84.90
2022-11-29T22:15:27.863Z,84.94
2022-11-29T22:18:00.172Z,84.84
2022-11-29T22:20:30.852Z,84.71
2022-11-29T22:23:02.837Z,84.63
2022-11-29T22:25:35.004Z,84.80
2022-11-29T22:28:07.603Z,84.69
2022-11-29T22:30:39.130Z,84.76
2022-11-29T22:33:13.431Z,84.99
2022-11-29T22:35:50.061Z,84.97
2022-11-29T22:38:23.488Z,84.99
2022-11-29T22:40:57.933Z,85.10
2022-11-29T22:43:33.811Z,85.13
2022-11-29T22:46:09.274Z,85.01
2022-11-29T22:48:41.758Z,84.92
2022-11-29T22:51:15.444Z,84.86
2022-11-29T22:53:52.112Z,84.62
2022-11-29T22:56:25.814Z,84.87
2022-11-29T22:58:58.892Z,84.85
2022-11-29T23:01:32.615Z,84.69
2022-11-29T23:04:05.988Z,84.48
2022-11-29T23:06:39.273Z,84.73
2022-11-29T23:09:15.123Z,84.60
2022-11-29T23:11:52.058Z,84.57
2022-11-29T23:14:24.895Z,84.70
2022-11-29T23:16:55.743Z,84.84
2022-11-29T23:19:26.384Z,84.65
2022-11-29T23:21:56.979Z,84.66
2022-11-29T23:24:27.599Z,84.67
2022-11-29T23:26:58.087Z,84.65
2022-11-29T23:29:29.547Z,84.57
2022-11-29T23:32:03.396Z,84.49
2022-11-29T23:34:34.985Z,84.39
2022-11-29T23:37:07.662Z,84.61
2022-11-29T23:39:37.950Z,84.27
2022-11-29T23:42:08.651Z,84.36
2022-11-29T23:44:41.129Z,84.50
2022-11-29T23:47:11.847Z,84.72
2022-11-29T23:49:43.670Z,84.50
2022-11-29T23:52:16.088Z,84.25
2022-11-29T23:54:48.099Z,84.46
2022-11-29T23:57:20.597Z,84.36
2022-11-29T23:59:54.541Z,84.42
